createdAt,value
2023-01-23T00:00:12.011Z,9.40
2023-01-23T00:02:39.892Z,9.20
2023-01-23T00:05:08.653Z,9.97
2023-01-23T00:07:36.416Z,8.23
2023-01-23T00:10:06.364Z,8.87
2023-01-23T00:12:34.126Z,6.83
2023-01-23T00:15:01.924Z,7.83
2023-01-23T00:17:29.696Z,7.90
2023-01-23T00:19:58.261Z,9.37
2023-01-23T00:22:26.039Z,9.90
2023-01-23T00:24:53.833Z,7.60
2023-01-23T00:27:22.987Z,7.30
2023-01-23T00:29:53.593Z,7.93
2023-01-23T00:32:21.476Z,9.37
2023-01-23T00:34:49.333Z,8.67
2023-01-23T00:37:17.565Z,8.33
2023-01-23T00:39:45.853Z,9.50
2023-01-23T00:42:13.633Z,9.80
2023-01-23T00:44:42.785Z,9.40
2023-01-23T00:47:10.558Z,7.90
2023-01-23T00:49:38.312Z,10.10
2023-01-23T00:52:06.174Z,9.17
2023-01-23T00:54:33.948Z,8.70
2023-01-23T00:57:01.765Z,9.47
2023-01-23T00:59:29.703Z,8.40
2023-01-23T01:01:58.958Z,11.90
2023-01-23T01:04:26.839Z,12.47
2023-01-23T01:06:54.885Z,8.67
2023-01-23T01:09:23.088Z,12.67
2023-01-23T01:11:50.874Z,9.70
2023-01-23T01:14:19.105Z,10.17
2023-01-23T01:16:46.901Z,11.63
2023-01-23T01:19:17.429Z,9.87
2023-01-23T01:21:45.491Z,11.73
2023-01-23T01:24:13.576Z,11.23
2023-01-23T01:26:41.341Z,10.63
2023-01-23T01:29:09.082Z,8.47
2023-01-23T01:31:36.920Z,9.40
2023-01-23T01:34:04.741Z,11.27
2023-01-23T01:36:33.878Z,10.23
2023-01-23T01:39:01.648Z,9.40
2023-01-23T01:41:29.518Z,9.63
2023-01-23T01:43:57.418Z,10.73
2023-01-23T01:46:26.898Z,8.87
2023-01-23T01:49:06.742Z,9.20
2023-01-23T01:51:40.026Z,9.57
2023-01-23T01:54:12.847Z,9.43
2023-01-23T01:56:45.463Z,10.83
2023-01-23T01:59:14.189Z,10.37
2023-01-23T02:01:46.664Z,12.30
2023-01-23T02:04:17.897Z,9.63
2023-01-23T02:06:47.314Z,9.83
2023-01-23T02:09:25.061Z,11.93
2023-01-23T02:11:52.951Z,9.63
2023-01-23T02:14:24.259Z,10.60
2023-01-23T02:16:54.865Z,12.77
2023-01-23T02:19:38.792Z,10.80
2023-01-23T02:22:18.053Z,11.17
2023-01-23T02:24:52.856Z,9.73
2023-01-23T02:27:22.003Z,11.73
2023-01-23T02:29:51.863Z,12.40
2023-01-23T02:32:24.243Z,11.17
2023-01-23T02:34:53.689Z,10.80
2023-01-23T02:37:23.943Z,11.03
2023-01-23T02:39:51.729Z,10.07
2023-01-23T02:42:19.730Z,11.77
2023-01-23T02:44:49.850Z,13.70
2023-01-23T02:47:17.643Z,11.13
2023-01-23T02:49:45.497Z,10.37
2023-01-23T02:52:13.385Z,11.37
2023-01-23T02:54:41.235Z,12.03
2023-01-23T02:57:09.280Z,11.63
2023-01-23T02:59:54.758Z,10.53
2023-01-23T03:02:24.003Z,11.77
2023-01-23T03:04:51.829Z,13.83
2023-01-23T03:07:19.590Z,14.10
2023-01-23T03:09:48.591Z,12.53
2023-01-23T03:12:16.562Z,13.77
2023-01-23T03:14:44.310Z,10.50
2023-01-23T03:17:14.650Z,9.53
2023-01-23T03:19:43.963Z,10.60
2023-01-23T03:22:11.870Z,9.30
2023-01-23T03:24:39.994Z,10.50
2023-01-23T03:27:07.772Z,13.33
2023-01-23T03:29:53.294Z,9.87
2023-01-23T03:32:22.378Z,13.57
2023-01-23T03:34:51.500Z,12.13
2023-01-23T03:37:19.621Z,11.97
2023-01-23T03:40:04.935Z,10.40
2023-01-23T03:42:35.245Z,9.67
2023-01-23T03:45:03.440Z,10.63
2023-01-23T03:47:31.221Z,11.00
2023-01-23T03:50:00.401Z,8.17
2023-01-23T03:52:28.161Z,9.30
2023-01-23T03:54:55.906Z,11.00
2023-01-23T03:57:23.776Z,8.93
2023-01-23T03:59:51.579Z,9.47
2023-01-23T04:02:19.553Z,8.67
2023-01-23T04:04:47.438Z,8.03
2023-01-23T04:07:16.631Z,10.33
2023-01-23T04:09:44.397Z,9.87
2023-01-23T04:12:12.219Z,10.63
2023-01-23T04:14:41.163Z,10.43
2023-01-23T04:17:09.649Z,7.77
2023-01-23T04:19:37.444Z,10.77
2023-01-23T04:22:05.695Z,11.97
2023-01-23T04:24:34.994Z,10.70
2023-01-23T04:27:02.860Z,12.17
2023-01-23T04:29:30.832Z,12.07
2023-01-23T04:31:58.619Z,12.80
2023-01-23T04:34:26.460Z,9.93
2023-01-23T04:36:54.215Z,11.23
2023-01-23T04:39:22.007Z,9.93
2023-01-23T04:41:51.118Z,10.23
2023-01-23T04:44:21.568Z,8.13
2023-01-23T04:46:50.715Z,10.67
2023-01-23T04:49:19.401Z,8.17
2023-01-23T04:51:48.121Z,10.23
2023-01-23T04:54:15.970Z,10.97
2023-01-23T04:56:44.129Z,9.37
2023-01-23T04:59:13.806Z,9.27
2023-01-23T05:01:41.647Z,10.40
2023-01-23T05:04:09.508Z,9.37
2023-01-23T05:06:37.383Z,9.97
2023-01-23T05:09:05.463Z,9.47
2023-01-23T05:11:33.379Z,9.53
2023-01-23T05:14:01.162Z,8.20
2023-01-23T05:16:30.267Z,8.70
2023-01-23T05:18:58.058Z,9.47
2023-01-23T05:21:25.885Z,9.83
2023-01-23T05:23:53.677Z,9.83
2023-01-23T05:26:21.495Z,8.63
2023-01-23T05:28:49.280Z,8.33
2023-01-23T05:31:17.171Z,12.80
2023-01-23T05:33:46.342Z,8.93
2023-01-23T05:36:14.131Z,9.40
2023-01-23T05:38:41.874Z,12.80
2023-01-23T05:41:09.608Z,7.27
2023-01-23T05:43:37.394Z,8.63
2023-01-23T05:46:05.488Z,10.97
2023-01-23T05:48:33.321Z,10.60
2023-01-23T05:51:03.522Z,9.70
2023-01-23T05:53:31.321Z,8.53
2023-01-23T05:55:59.063Z,10.23
2023-01-23T05:58:26.868Z,9.40
2023-01-23T06:00:55.047Z,10.73
2023-01-23T06:03:22.853Z,9.97
2023-01-23T06:05:50.652Z,10.17
2023-01-23T06:08:19.807Z,10.00
2023-01-23T06:10:47.649Z,7.83
2023-01-23T06:13:15.544Z,10.33
2023-01-23T06:15:43.329Z,10.53
2023-01-23T06:18:11.304Z,7.10
2023-01-23T06:20:39.116Z,9.40
2023-01-23T06:23:06.894Z,10.00
2023-01-23T06:25:37.512Z,9.60
2023-01-23T06:28:05.764Z,8.50
2023-01-23T06:30:33.543Z,9.60
2023-01-23T06:33:01.419Z,10.27
2023-01-23T06:35:29.234Z,8.87
2023-01-23T06:37:57.049Z,11.77
2023-01-23T06:40:24.819Z,9.20
2023-01-23T06:42:56.487Z,10.40
2023-01-23T06:45:24.425Z,10.80
2023-01-23T06:47:53.255Z,8.97
2023-01-23T06:50:21.350Z,8.30
2023-01-23T06:52:49.284Z,9.23
2023-01-23T06:55:17.126Z,9.57
2023-01-23T06:57:44.917Z,8.67
2023-01-23T07:00:15.777Z,8.87
2023-01-23T07:02:45.504Z,9.47
2023-01-23T07:05:13.528Z,12.60
2023-01-23T07:07:41.481Z,10.47
2023-01-23T07:10:10.959Z,11.60
2023-01-23T07:12:39.067Z,12.63
2023-01-23T07:15:08.096Z,12.40
2023-01-23T07:17:37.218Z,12.97
2023-01-23T07:20:07.655Z,11.80
2023-01-23T07:22:35.842Z,12.87
2023-01-23T07:25:03.660Z,11.27
2023-01-23T07:27:34.797Z,10.97
2023-01-23T07:30:02.599Z,11.93
2023-01-23T07:32:30.382Z,11.87
2023-01-23T07:34:59.505Z,9.37
2023-01-23T07:37:27.281Z,10.30
2023-01-23T07:39:55.053Z,9.93
2023-01-23T07:42:23.565Z,10.67
2023-01-23T07:44:51.398Z,10.30
2023-01-23T07:47:19.297Z,9.70
2023-01-23T07:49:47.113Z,11.97
2023-01-23T07:52:16.202Z,12.03
2023-01-23T07:54:44.004Z,11.13
2023-01-23T07:57:11.799Z,11.47
2023-01-23T07:59:39.558Z,10.47
2023-01-23T08:02:07.369Z,9.53
2023-01-23T08:04:35.292Z,11.00
2023-01-23T08:07:03.041Z,11.33
2023-01-23T08:09:32.190Z,10.80
2023-01-23T08:11:59.959Z,11.80
2023-01-23T08:14:27.946Z,11.07
2023-01-23T08:16:56.743Z,10.63
2023-01-23T08:19:25.260Z,12.70
2023-01-23T08:21:53.070Z,13.10
2023-01-23T08:24:21.241Z,12.07
2023-01-23T08:26:50.394Z,12.40
2023-01-23T08:29:18.207Z,10.33
2023-01-23T08:31:46.074Z,12.73
2023-01-23T08:34:13.904Z,11.30
2023-01-23T08:36:42.682Z,11.13
2023-01-23T08:39:10.577Z,9.77
2023-01-23T08:41:38.349Z,10.57
2023-01-23T08:44:07.515Z,11.50
2023-01-23T08:46:35.325Z,10.73
2023-01-23T08:49:03.236Z,12.03
2023-01-23T08:51:31.302Z,11.37
2023-01-23T08:53:59.084Z,9.27
2023-01-23T08:56:27.046Z,7.87
2023-01-23T08:58:54.811Z,8.87
2023-01-23T09:01:26.604Z,8.63
2023-01-23T09:03:54.913Z,10.10
2023-01-23T09:06:23.615Z,8.60
2023-01-23T09:08:51.432Z,9.33
2023-01-23T09:11:19.621Z,9.10
2023-01-23T09:13:47.886Z,7.43
2023-01-23T09:16:16.423Z,6.97
2023-01-23T09:18:45.570Z,8.93
2023-01-23T09:21:15.710Z,8.30
2023-01-23T09:23:43.940Z,7.73
2023-01-23T09:26:13.444Z,6.93
2023-01-23T09:28:43.150Z,6.83
2023-01-23T09:31:13.035Z,7.97
2023-01-23T09:33:41.852Z,6.57
2023-01-23T09:36:11.868Z,7.67
2023-01-23T09:38:39.652Z,7.67
2023-01-23T09:41:15.349Z,6.83
2023-01-23T09:43:49.959Z,8.97
2023-01-23T09:46:23.503Z,8.07
2023-01-23T09:48:58.360Z,6.33
2023-01-23T09:51:45.767Z,6.57
2023-01-23T09:54:23.841Z,7.07
2023-01-23T09:56:54.570Z,7.27
2023-01-23T09:59:30.130Z,7.13
2023-01-23T10:01:58.026Z,7.83
2023-01-23T10:04:25.955Z,6.60
2023-01-23T10:07:10.025Z,6.50
2023-01-23T10:09:52.794Z,7.17
2023-01-23T10:12:33.337Z,7.13
2023-01-23T10:15:19.170Z,7.27
2023-01-23T10:17:55.070Z,7.87
2023-01-23T10:20:39.550Z,8.53
2023-01-23T10:23:19.395Z,7.63
2023-01-23T10:25:48.636Z,6.63
2023-01-23T10:28:24.857Z,5.50
2023-01-23T10:30:58.965Z,8.63
2023-01-23T10:33:34.607Z,7.43
2023-01-23T10:36:06.627Z,7.10
2023-01-23T10:38:42.741Z,6.77
2023-01-23T10:41:15.359Z,8.60
2023-01-23T10:43:45.534Z,5.97
2023-01-23T10:46:15.497Z,6.70
2023-01-23T10:48:46.665Z,6.17
2023-01-23T10:51:28.887Z,7.33
2023-01-23T10:54:30.360Z,7.07
2023-01-23T10:57:00.731Z,6.60
2023-01-23T10:59:33.687Z,7.40
2023-01-23T11:02:19.838Z,5.40
2023-01-23T11:04:51.580Z,8.13
2023-01-23T11:07:21.992Z,6.47
2023-01-23T11:09:54.989Z,5.67
2023-01-23T11:12:25.066Z,5.93
2023-01-23T11:15:11.618Z,5.97
2023-01-23T11:17:39.617Z,6.77
2023-01-23T11:20:12.770Z,5.13
2023-01-23T11:22:42.734Z,6.83
2023-01-23T11:25:29.834Z,5.53
2023-01-23T11:27:59.375Z,7.00
2023-01-23T11:30:35.845Z,6.43
2023-01-23T11:33:13.598Z,6.50
2023-01-23T11:35:53.014Z,5.43
2023-01-23T11:38:30.852Z,4.63
2023-01-23T11:41:00.571Z,5.77
2023-01-23T11:43:28.376Z,6.73
2023-01-23T11:46:15.900Z,5.57
2023-01-23T11:48:56.847Z,5.83
2023-01-23T11:51:31.360Z,4.83
2023-01-23T11:54:09.709Z,5.77
2023-01-23T11:57:00.658Z,4.10
2023-01-23T11:59:48.478Z,5.40
2023-01-23T12:02:42.734Z,4.23
2023-01-23T12:05:29.657Z,4.10
2023-01-23T12:08:12.066Z,4.20
2023-01-23T12:10:54.570Z,5.23
2023-01-23T12:13:53.590Z,3.93
2023-01-23T12:16:28.335Z,4.57
2023-01-23T12:19:13.568Z,4.17
2023-01-23T12:21:53.094Z,4.20
2023-01-23T12:24:39.433Z,4.07
2023-01-23T12:27:16.676Z,4.10
2023-01-23T12:30:15.382Z,4.70
2023-01-23T12:32:54.141Z,3.83
2023-01-23T12:35:32.484Z,4.67
2023-01-23T12:38:11.535Z,4.57
2023-01-23T12:40:44.551Z,5.70
2023-01-23T12:43:16.818Z,5.17
2023-01-23T12:45:51.909Z,5.33
2023-01-23T12:48:28.123Z,5.10
2023-01-23T12:51:01.905Z,5.40
2023-01-23T12:53:33.983Z,6.40
2023-01-23T12:56:06.537Z,8.43
2023-01-23T12:58:38.457Z,6.33
2023-01-23T13:01:22.111Z,6.90
2023-01-23T13:04:14.250Z,8.77
2023-01-23T13:06:54.019Z,7.47
2023-01-23T13:09:33.312Z,8.57
2023-01-23T13:12:21.809Z,7.63
2023-01-23T13:17:43.420Z,6.47
2023-01-23T13:20:40.756Z,6.50
2023-01-23T13:23:30.175Z,7.10
2023-01-23T13:26:32.382Z,9.43
2023-01-23T13:29:03.575Z,8.00
2023-01-23T13:31:45.284Z,8.37
2023-01-23T13:34:37.889Z,7.67
2023-01-23T13:37:33.683Z,7.80
2023-01-23T13:40:16.443Z,7.27
2023-01-23T13:42:44.876Z,12.93
2023-01-23T13:45:26.698Z,9.07
2023-01-23T14:20:24.893Z,6.23
2023-01-23T14:22:55.633Z,6.53
2023-01-23T14:25:23.949Z,7.27
2023-01-23T14:28:03.990Z,7.57
2023-01-23T14:30:31.991Z,6.53
2023-01-23T14:33:01.265Z,15.23
2023-01-23T14:35:31.074Z,8.50
2023-01-23T14:38:01.617Z,8.80
2023-01-23T14:40:37.310Z,9.13
2023-01-23T14:43:21.089Z,8.17
2023-01-23T14:45:53.181Z,7.83
2023-01-23T14:48:22.792Z,7.37
2023-01-23T14:50:50.640Z,7.33
2023-01-23T14:53:18.580Z,9.23
2023-01-23T14:55:49.642Z,8.77
2023-01-23T14:58:23.293Z,8.03
2023-01-23T15:00:53.021Z,7.20
2023-01-23T15:03:39.116Z,7.43
2023-01-23T15:06:16.443Z,8.47
2023-01-23T15:08:44.419Z,7.07
2023-01-23T15:11:15.775Z,7.63
2023-01-23T15:13:50.222Z,8.17
2023-01-23T15:16:23.189Z,8.17
2023-01-23T15:18:58.284Z,7.27
2023-01-23T15:21:33.110Z,9.53
2023-01-23T15:24:17.413Z,8.00
2023-01-23T15:26:46.373Z,8.60
2023-01-23T15:29:20.807Z,8.13
2023-01-23T15:31:51.147Z,9.30
2023-01-23T15:34:25.116Z,10.87
2023-01-23T15:36:56.593Z,10.50
2023-01-23T15:39:27.518Z,11.27
2023-01-23T15:41:58.286Z,9.87
2023-01-23T15:44:29.533Z,9.53
2023-01-23T15:47:00.854Z,10.33
2023-01-23T15:49:30.747Z,9.57
2023-01-23T15:51:59.454Z,10.13
2023-01-23T15:54:32.336Z,8.67
2023-01-23T15:57:07.523Z,10.33
2023-01-23T15:59:36.486Z,12.77
2023-01-23T16:02:04.973Z,12.93
2023-01-23T16:04:34.380Z,11.33
2023-01-23T16:07:06.670Z,11.90
2023-01-23T16:09:37.821Z,9.27
2023-01-23T16:12:06.230Z,11.93
2023-01-23T16:14:34.030Z,9.70
2023-01-23T16:17:15.320Z,13.53
2023-01-23T16:19:45.854Z,10.20
2023-01-23T16:22:17.813Z,10.07
2023-01-23T16:24:46.431Z,9.87
2023-01-23T16:27:19.099Z,9.83
2023-01-23T16:29:49.289Z,10.10
2023-01-23T16:32:17.604Z,9.03
2023-01-23T16:34:47.010Z,10.63
2023-01-23T16:37:16.953Z,14.07
2023-01-23T16:39:46.179Z,14.03
2023-01-23T16:42:21.073Z,9.33
2023-01-23T16:44:49.099Z,11.97
2023-01-23T16:47:16.940Z,10.77
2023-01-23T16:49:52.769Z,11.77
2023-01-23T16:52:22.289Z,9.83
2023-01-23T16:54:53.175Z,10.70
2023-01-23T16:57:21.982Z,10.50
2023-01-23T16:59:50.967Z,9.60
2023-01-23T17:02:22.968Z,10.47
2023-01-23T17:04:52.521Z,10.67
2023-01-23T17:07:20.559Z,11.60
2023-01-23T17:09:49.129Z,12.17
2023-01-23T17:12:20.782Z,9.83
2023-01-23T17:14:49.780Z,9.40
2023-01-23T17:17:24.049Z,10.77
2023-01-23T17:19:53.229Z,10.90
2023-01-23T17:22:24.113Z,10.90
2023-01-23T17:24:51.882Z,10.73
2023-01-23T17:27:19.684Z,8.50
2023-01-23T17:29:48.193Z,11.20
2023-01-23T17:32:25.218Z,10.47
2023-01-23T17:34:57.377Z,9.77
2023-01-23T17:37:27.021Z,9.87
2023-01-23T17:39:54.880Z,10.13
2023-01-23T17:42:24.710Z,10.17
2023-01-23T17:44:55.222Z,9.90
2023-01-23T17:47:27.020Z,8.33
2023-01-23T17:49:56.531Z,11.60
2023-01-23T17:52:25.012Z,9.27
2023-01-23T17:54:54.246Z,11.60
2023-01-23T17:57:22.091Z,9.83
2023-01-23T17:59:49.894Z,10.50
2023-01-23T18:02:27.872Z,8.67
2023-01-23T18:04:57.329Z,9.97
2023-01-23T18:07:25.203Z,11.03
2023-01-23T18:09:55.294Z,9.10
2023-01-23T18:12:31.325Z,9.40
2023-01-23T18:15:07.303Z,10.37
2023-01-23T18:17:43.299Z,8.37
2023-01-23T18:20:19.554Z,7.50
2023-01-23T18:22:47.945Z,9.80
2023-01-23T18:25:17.145Z,10.30
2023-01-23T18:27:49.932Z,8.87
2023-01-23T18:30:29.425Z,10.97
2023-01-23T18:33:23.418Z,10.73
2023-01-23T18:36:16.272Z,10.67
2023-01-23T18:38:57.573Z,10.43
2023-01-23T18:41:26.888Z,7.83
2023-01-23T18:44:04.562Z,9.23
2023-01-23T18:46:32.832Z,9.77
2023-01-23T18:49:01.398Z,11.33
2023-01-23T18:51:40.269Z,9.37
2023-01-23T18:54:20.940Z,9.50
2023-01-23T18:57:03.644Z,9.30
2023-01-23T18:59:40.659Z,7.77
2023-01-23T19:02:23.292Z,8.47
2023-01-23T19:04:55.716Z,10.93
2023-01-23T19:07:25.328Z,11.33
2023-01-23T19:09:53.509Z,13.27
2023-01-23T19:12:30.009Z,10.63
2023-01-23T19:15:21.576Z,12.80
2023-01-23T19:17:54.550Z,11.60
2023-01-23T19:20:27.563Z,11.07
2023-01-23T19:23:19.083Z,9.70
2023-01-23T19:25:47.972Z,11.47
2023-01-23T19:28:16.608Z,9.10
2023-01-23T19:30:44.932Z,9.93
2023-01-23T19:33:16.686Z,13.13
2023-01-23T19:35:44.701Z,12.10
2023-01-23T19:38:17.586Z,10.93
2023-01-23T19:40:46.252Z,11.97
2023-01-23T19:43:16.787Z,9.87
2023-01-23T19:45:44.819Z,10.27
2023-01-23T19:48:15.300Z,9.53
2023-01-23T19:50:43.685Z,12.60
2023-01-23T19:53:14.529Z,12.57
2023-01-23T19:55:44.978Z,11.70
2023-01-23T19:58:12.810Z,11.57
2023-01-23T20:00:40.712Z,11.73
2023-01-23T20:03:13.681Z,10.67
2023-01-23T20:05:41.455Z,10.37
2023-01-23T20:08:10.137Z,9.80
2023-01-23T20:10:39.373Z,10.33
2023-01-23T20:13:10.128Z,12.37
2023-01-23T20:15:37.921Z,11.57
2023-01-23T20:18:05.903Z,11.03
2023-01-23T20:20:33.703Z,11.37
2023-01-23T20:23:01.489Z,9.30
2023-01-23T20:25:29.274Z,10.67
2023-01-23T20:27:58.408Z,11.60
2023-01-23T20:30:26.253Z,11.53
2023-01-23T20:32:53.976Z,10.33
2023-01-23T20:35:21.735Z,9.17
2023-01-23T20:37:51.852Z,9.93
2023-01-23T20:40:19.834Z,10.97
2023-01-23T20:42:48.067Z,11.60
2023-01-23T20:45:17.350Z,9.67
2023-01-23T20:47:45.144Z,9.70
2023-01-23T20:50:12.993Z,11.17
2023-01-23T20:52:54.719Z,12.97
2023-01-23T20:55:22.693Z,11.60
2023-01-23T20:58:08.054Z,9.53
2023-01-23T21:00:37.201Z,10.13
2023-01-23T21:03:05.138Z,11.83
2023-01-23T21:05:32.929Z,10.30
2023-01-23T21:08:00.698Z,11.27
2023-01-23T21:10:28.504Z,10.53
2023-01-23T21:12:56.320Z,11.33
2023-01-23T21:15:24.180Z,13.73
2023-01-23T21:17:53.305Z,10.33
2023-01-23T21:20:21.142Z,11.30
2023-01-23T21:22:48.914Z,11.87
2023-01-23T21:25:16.711Z,9.83
2023-01-23T21:27:44.465Z,10.07
2023-01-23T21:30:12.965Z,9.43
2023-01-23T21:32:40.862Z,9.17
2023-01-23T21:35:10.749Z,10.47
2023-01-23T21:37:38.663Z,9.03
2023-01-23T21:40:07.972Z,9.13
2023-01-23T21:42:35.770Z,9.10
2023-01-23T21:45:03.596Z,12.00
2023-01-23T21:47:31.382Z,10.23
2023-01-23T21:49:59.128Z,10.43
2023-01-23T21:52:29.489Z,11.63
2023-01-23T21:54:57.422Z,9.23
2023-01-23T21:57:25.234Z,11.20
2023-01-23T22:00:06.932Z,9.57
2023-01-23T22:02:34.907Z,10.33
2023-01-23T22:05:02.789Z,9.07
2023-01-23T22:07:32.028Z,10.30
2023-01-23T22:09:59.800Z,11.33
2023-01-23T22:12:28.913Z,13.63
2023-01-23T22:14:56.747Z,11.40
2023-01-23T22:17:24.592Z,8.63
2023-01-23T22:19:52.368Z,9.53
2023-01-23T22:22:20.640Z,11.77
2023-01-23T22:24:49.730Z,9.13
2023-01-23T22:27:17.930Z,14.63
2023-01-23T22:29:45.693Z,9.27
2023-01-23T22:32:13.555Z,9.63
2023-01-23T22:34:41.369Z,10.93
2023-01-23T22:37:09.166Z,9.83
2023-01-23T22:39:36.921Z,9.63
2023-01-23T22:42:06.175Z,10.13
2023-01-23T22:44:34.037Z,9.53
2023-01-23T22:47:01.905Z,9.07
2023-01-23T22:49:29.734Z,9.73
2023-01-23T22:51:57.504Z,9.67
2023-01-23T22:54:25.290Z,9.50
2023-01-23T22:56:53.084Z,9.67
2023-01-23T22:59:22.193Z,9.83
2023-01-23T23:01:49.947Z,9.20
2023-01-23T23:04:17.740Z,9.00
2023-01-23T23:06:45.498Z,10.47
2023-01-23T23:09:13.277Z,10.33
2023-01-23T23:11:41.669Z,11.87
2023-01-23T23:14:10.696Z,9.47
2023-01-23T23:16:40.778Z,9.90
2023-01-23T23:19:08.624Z,8.50
2023-01-23T23:21:37.900Z,9.10
2023-01-23T23:24:07.838Z,9.37
2023-01-23T23:26:36.024Z,9.60
2023-01-23T23:29:04.204Z,9.13
2023-01-23T23:31:32.448Z,9.20
2023-01-23T23:34:01.770Z,10.40
2023-01-23T23:36:29.661Z,11.10
2023-01-23T23:38:57.465Z,10.00
2023-01-23T23:41:25.537Z,9.50
2023-01-23T23:43:53.341Z,9.90
2023-01-23T23:46:21.100Z,11.27
2023-01-23T23:48:48.887Z,11.30
2023-01-23T23:51:19.628Z,10.37
2023-01-23T23:53:47.660Z,9.97
2023-01-23T23:56:21.178Z,8.63
2023-01-23T23:58:48.998Z,11.70
